Main page
METAR-TAF:

METAR-TAF

Airports :

Visakhapatnam Airport

Visakhapatnam, India

latitude: 17-43-16N, longitude: 83-13-28E, elevation: 6 m

Current weather observation

The report was made 1 hour and 56 minutes ago, at 21:00 UTC
Wind 2 kt from variable directions
Temperature 22°C
Humidity 94%
Pressure 1014 hPa
Visibility: 4500 m
Few clouds at a height of 1800 ft
mist

METAR: VOVZ 212100Z VRB02KT 4500 BR FEW018 22/21 Q1014 NOSIG

Time: 04:26 (22:56 UTC)

Forecast

The report was made 2 hours and 56 minutes ago, at 20:00 UTC
Forecast valid from 21 at 21 UTC to 22 at 06 UTC
Wind 2 kt from variable directions
Visibility: 4500 m
Few clouds at a height of 1800 ft
mist
Temporary
from 21 at 23 UTC to 22 at 02 UTC
Visibility: 2000 m
mist
Becoming
from 22 at 03 UTC to 22 at 05 UTC
Wind 5 kt from the Northeast
Visibility: 3000 m
haze

TAF: VOVZ 212000Z 2121/2206 VRB02KT 4500 BR FEW018 TEMPO 2123/2202 2000 BR BECMG 2203/2205 04005KT 3000 HZ

Weather observations and forecasts of more than 4000 airports (METAR and TAF reports).

The available stations are represented by yellow and red dots on the map.

Hover mouse over dot to see the name of the station.

Then click to see weather observations and forecasts.

To change the map : click on the green buttons with a black cross to zoom in, on the green button with a dash to zoom out, or on the green arrows for adjacent maps.


METAR-TAF: